sensor_id;sensor_type;location;lat;lon;timestamp;P1;durP1;ratioP1;P2;durP2;ratioP2
15624;SDS011;7912;51.376;6.126;2023-07-29T00:00:16;3.17;;;2.97;;
15624;SDS011;7912;51.376;6.126;2023-07-29T00:02:45;3.90;;;3.40;;
15624;SDS011;7912;51.376;6.126;2023-07-29T00:05:13;3.13;;;2.93;;
15624;SDS011;7912;51.376;6.126;2023-07-29T00:07:40;4.00;;;3.57;;
15624;SDS011;7912;51.376;6.126;2023-07-29T00:10:07;3.47;;;2.90;;
15624;SDS011;7912;51.376;6.126;2023-07-29T00:12:35;3.83;;;3.07;;
15624;SDS011;7912;51.376;6.126;2023-07-29T00:15:02;3.23;;;3.03;;
15624;SDS011;7912;51.376;6.126;2023-07-29T00:17:32;3.60;;;3.30;;
15624;SDS011;7912;51.376;6.126;2023-07-29T00:20:03;3.13;;;2.93;;
15624;SDS011;7912;51.376;6.126;2023-07-29T00:22:34;3.43;;;3.13;;
15624;SDS011;7912;51.376;6.126;2023-07-29T00:25:01;3.07;;;2.77;;
15624;SDS011;7912;51.376;6.126;2023-07-29T00:27:29;2.87;;;2.67;;
15624;SDS011;7912;51.376;6.126;2023-07-29T00:29:56;3.00;;;2.80;;
15624;SDS011;7912;51.376;6.126;2023-07-29T00:32:23;3.53;;;3.07;;
15624;SDS011;7912;51.376;6.126;2023-07-29T00:34:51;3.20;;;2.80;;
15624;SDS011;7912;51.376;6.126;2023-07-29T00:37:19;3.27;;;2.97;;
15624;SDS011;7912;51.376;6.126;2023-07-29T00:39:46;3.07;;;2.80;;
15624;SDS011;7912;51.376;6.126;2023-07-29T00:42:13;3.17;;;2.97;;
15624;SDS011;7912;51.376;6.126;2023-07-29T00:44:41;3.30;;;3.00;;
15624;SDS011;7912;51.376;6.126;2023-07-29T00:47:08;2.87;;;2.63;;
15624;SDS011;7912;51.376;6.126;2023-07-29T00:49:36;2.60;;;2.40;;
15624;SDS011;7912;51.376;6.126;2023-07-29T00:52:04;3.03;;;2.83;;
15624;SDS011;7912;51.376;6.126;2023-07-29T00:54:31;3.23;;;2.70;;
15624;SDS011;7912;51.376;6.126;2023-07-29T00:56:59;2.90;;;2.70;;
15624;SDS011;7912;51.376;6.126;2023-07-29T00:59:26;3.00;;;2.70;;
15624;SDS011;7912;51.376;6.126;2023-07-29T01:01:58;3.10;;;2.87;;
15624;SDS011;7912;51.376;6.126;2023-07-29T01:04:26;3.00;;;2.80;;
15624;SDS011;7912;51.376;6.126;2023-07-29T01:06:58;2.63;;;2.43;;
15624;SDS011;7912;51.376;6.126;2023-07-29T01:15:20;3.23;;;2.93;;
15624;SDS011;7912;51.376;6.126;2023-07-29T01:18:05;3.13;;;2.60;;
15624;SDS011;7912;51.376;6.126;2023-07-29T01:20:52;2.93;;;2.73;;
15624;SDS011;7912;51.376;6.126;2023-07-29T01:23:31;2.77;;;2.57;;
15624;SDS011;7912;51.376;6.126;2023-07-29T01:26:00;2.73;;;2.53;;
15624;SDS011;7912;51.376;6.126;2023-07-29T01:28:28;3.27;;;2.87;;
15624;SDS011;7912;51.376;6.126;2023-07-29T01:31:10;3.13;;;2.80;;
15624;SDS011;7912;51.376;6.126;2023-07-29T01:33:48;2.83;;;2.63;;
15624;SDS011;7912;51.376;6.126;2023-07-29T01:40:26;3.30;;;3.07;;
15624;SDS011;7912;51.376;6.126;2023-07-29T01:42:55;4.30;;;3.10;;
15624;SDS011;7912;51.376;6.126;2023-07-29T01:45:25;2.83;;;2.63;;
15624;SDS011;7912;51.376;6.126;2023-07-29T01:47:53;3.60;;;3.30;;
15624;SDS011;7912;51.376;6.126;2023-07-29T01:50:20;3.53;;;3.23;;
15624;SDS011;7912;51.376;6.126;2023-07-29T01:52:48;4.00;;;3.20;;
15624;SDS011;7912;51.376;6.126;2023-07-29T01:55:15;3.20;;;3.00;;
15624;SDS011;7912;51.376;6.126;2023-07-29T01:57:42;4.30;;;3.43;;
15624;SDS011;7912;51.376;6.126;2023-07-29T02:00:11;3.23;;;2.93;;
15624;SDS011;7912;51.376;6.126;2023-07-29T02:02:38;2.87;;;2.63;;
15624;SDS011;7912;51.376;6.126;2023-07-29T02:05:06;2.80;;;2.60;;
15624;SDS011;7912;51.376;6.126;2023-07-29T02:07:33;3.90;;;3.23;;
15624;SDS011;7912;51.376;6.126;2023-07-29T02:10:01;3.20;;;3.00;;
15624;SDS011;7912;51.376;6.126;2023-07-29T02:12:28;3.40;;;3.10;;
15624;SDS011;7912;51.376;6.126;2023-07-29T02:14:56;4.00;;;3.40;;
15624;SDS011;7912;51.376;6.126;2023-07-29T02:17:23;3.90;;;3.57;;
15624;SDS011;7912;51.376;6.126;2023-07-29T02:19:50;4.00;;;3.60;;
15624;SDS011;7912;51.376;6.126;2023-07-29T02:22:18;3.50;;;3.20;;
15624;SDS011;7912;51.376;6.126;2023-07-29T02:24:45;3.80;;;3.40;;
15624;SDS011;7912;51.376;6.126;2023-07-29T02:27:13;4.00;;;3.70;;
15624;SDS011;7912;51.376;6.126;2023-07-29T02:29:40;3.77;;;3.47;;
15624;SDS011;7912;51.376;6.126;2023-07-29T02:32:07;4.17;;;3.80;;
15624;SDS011;7912;51.376;6.126;2023-07-29T02:34:35;4.50;;;4.10;;
15624;SDS011;7912;51.376;6.126;2023-07-29T02:37:02;4.03;;;3.50;;
15624;SDS011;7912;51.376;6.126;2023-07-29T02:39:30;4.03;;;3.73;;
15624;SDS011;7912;51.376;6.126;2023-07-29T02:41:57;4.13;;;3.60;;
15624;SDS011;7912;51.376;6.126;2023-07-29T02:44:25;4.60;;;3.47;;
15624;SDS011;7912;51.376;6.126;2023-07-29T02:46:52;4.33;;;3.37;;
15624;SDS011;7912;51.376;6.126;2023-07-29T02:49:22;3.77;;;3.43;;
15624;SDS011;7912;51.376;6.126;2023-07-29T02:51:50;3.57;;;3.27;;
15624;SDS011;7912;51.376;6.126;2023-07-29T02:54:17;4.43;;;3.70;;
15624;SDS011;7912;51.376;6.126;2023-07-29T02:56:44;3.87;;;3.57;;
15624;SDS011;7912;51.376;6.126;2023-07-29T02:59:12;4.30;;;3.50;;
15624;SDS011;7912;51.376;6.126;2023-07-29T03:01:39;4.00;;;3.70;;
15624;SDS011;7912;51.376;6.126;2023-07-29T03:04:06;3.20;;;3.00;;
15624;SDS011;7912;51.376;6.126;2023-07-29T03:06:34;4.10;;;3.70;;
15624;SDS011;7912;51.376;6.126;2023-07-29T03:09:02;3.10;;;2.90;;
15624;SDS011;7912;51.376;6.126;2023-07-29T03:11:29;3.73;;;3.30;;
15624;SDS011;7912;51.376;6.126;2023-07-29T03:13:57;3.60;;;3.30;;
15624;SDS011;7912;51.376;6.126;2023-07-29T03:16:24;3.90;;;3.50;;
15624;SDS011;7912;51.376;6.126;2023-07-29T03:18:52;3.70;;;3.40;;
15624;SDS011;7912;51.376;6.126;2023-07-29T03:21:19;3.20;;;3.00;;
15624;SDS011;7912;51.376;6.126;2023-07-29T03:23:46;4.23;;;3.50;;
15624;SDS011;7912;51.376;6.126;2023-07-29T03:26:14;3.80;;;3.50;;
15624;SDS011;7912;51.376;6.126;2023-07-29T03:28:41;3.77;;;3.47;;
15624;SDS011;7912;51.376;6.126;2023-07-29T03:31:10;3.70;;;3.37;;
15624;SDS011;7912;51.376;6.126;2023-07-29T03:33:37;3.60;;;3.30;;
15624;SDS011;7912;51.376;6.126;2023-07-29T03:36:05;3.40;;;3.10;;
15624;SDS011;7912;51.376;6.126;2023-07-29T03:38:32;3.33;;;2.90;;
15624;SDS011;7912;51.376;6.126;2023-07-29T03:41:01;3.57;;;3.30;;
15624;SDS011;7912;51.376;6.126;2023-07-29T03:43:29;4.70;;;2.90;;
15624;SDS011;7912;51.376;6.126;2023-07-29T03:45:56;3.00;;;2.67;;
15624;SDS011;7912;51.376;6.126;2023-07-29T03:48:24;3.13;;;2.63;;
15624;SDS011;7912;51.376;6.126;2023-07-29T03:50:51;2.90;;;2.60;;
15624;SDS011;7912;51.376;6.126;2023-07-29T03:53:18;3.00;;;2.70;;
15624;SDS011;7912;51.376;6.126;2023-07-29T04:11:58;2.47;;;2.27;;
15624;SDS011;7912;51.376;6.126;2023-07-29T04:14:26;3.10;;;2.80;;
15624;SDS011;7912;51.376;6.126;2023-07-29T04:16:53;2.60;;;2.40;;
15624;SDS011;7912;51.376;6.126;2023-07-29T04:19:20;2.83;;;2.50;;
15624;SDS011;7912;51.376;6.126;2023-07-29T04:21:48;3.57;;;2.70;;
15624;SDS011;7912;51.376;6.126;2023-07-29T04:24:17;3.10;;;2.33;;
15624;SDS011;7912;51.376;6.126;2023-07-29T04:26:46;2.63;;;2.43;;
15624;SDS011;7912;51.376;6.126;2023-07-29T04:29:14;3.80;;;2.67;;
15624;SDS011;7912;51.376;6.126;2023-07-29T04:31:41;3.73;;;2.80;;
15624;SDS011;7912;51.376;6.126;2023-07-29T04:34:09;3.00;;;2.70;;
15624;SDS011;7912;51.376;6.126;2023-07-29T04:36:36;2.93;;;2.70;;
15624;SDS011;7912;51.376;6.126;2023-07-29T04:39:04;4.87;;;2.73;;
15624;SDS011;7912;51.376;6.126;2023-07-29T04:41:34;3.27;;;2.87;;
15624;SDS011;7912;51.376;6.126;2023-07-29T04:44:02;4.90;;;2.87;;
15624;SDS011;7912;51.376;6.126;2023-07-29T04:46:30;3.67;;;3.03;;
15624;SDS011;7912;51.376;6.126;2023-07-29T04:48:57;3.07;;;2.80;;
15624;SDS011;7912;51.376;6.126;2023-07-29T04:51:24;3.33;;;2.87;;
15624;SDS011;7912;51.376;6.126;2023-07-29T04:53:52;3.23;;;2.87;;
15624;SDS011;7912;51.376;6.126;2023-07-29T04:56:19;3.37;;;3.07;;
15624;SDS011;7912;51.376;6.126;2023-07-29T04:58:46;3.87;;;2.93;;
15624;SDS011;7912;51.376;6.126;2023-07-29T05:01:17;3.40;;;3.10;;
15624;SDS011;7912;51.376;6.126;2023-07-29T05:03:44;3.80;;;3.00;;
15624;SDS011;7912;51.376;6.126;2023-07-29T05:06:11;3.50;;;3.13;;
15624;SDS011;7912;51.376;6.126;2023-07-29T05:08:39;3.40;;;3.10;;
15624;SDS011;7912;51.376;6.126;2023-07-29T05:15:16;3.60;;;2.93;;
15624;SDS011;7912;51.376;6.126;2023-07-29T05:17:45;3.40;;;3.10;;
15624;SDS011;7912;51.376;6.126;2023-07-29T05:20:12;3.50;;;3.20;;
15624;SDS011;7912;51.376;6.126;2023-07-29T05:22:39;3.30;;;3.00;;
15624;SDS011;7912;51.376;6.126;2023-07-29T05:25:07;3.83;;;3.30;;
15624;SDS011;7912;51.376;6.126;2023-07-29T05:27:34;3.77;;;2.90;;
15624;SDS011;7912;51.376;6.126;2023-07-29T05:30:02;3.27;;;2.47;;
15624;SDS011;7912;51.376;6.126;2023-07-29T05:32:30;3.97;;;3.00;;
15624;SDS011;7912;51.376;6.126;2023-07-29T05:34:57;2.73;;;2.50;;
15624;SDS011;7912;51.376;6.126;2023-07-29T05:37:26;4.80;;;2.80;;
15624;SDS011;7912;51.376;6.126;2023-07-29T05:39:53;2.90;;;2.70;;
15624;SDS011;7912;51.376;6.126;2023-07-29T05:42:21;2.93;;;2.63;;
15624;SDS011;7912;51.376;6.126;2023-07-29T05:44:48;2.50;;;2.30;;
15624;SDS011;7912;51.376;6.126;2023-07-29T05:47:15;3.47;;;2.80;;
15624;SDS011;7912;51.376;6.126;2023-07-29T05:49:43;2.90;;;2.60;;
15624;SDS011;7912;51.376;6.126;2023-07-29T05:52:10;2.77;;;2.53;;
15624;SDS011;7912;51.376;6.126;2023-07-29T05:54:37;3.50;;;2.93;;
15624;SDS011;7912;51.376;6.126;2023-07-29T05:57:05;2.70;;;2.50;;
15624;SDS011;7912;51.376;6.126;2023-07-29T05:59:33;2.93;;;2.47;;
15624;SDS011;7912;51.376;6.126;2023-07-29T06:02:00;2.90;;;2.30;;
15624;SDS011;7912;51.376;6.126;2023-07-29T06:04:28;2.80;;;2.47;;
15624;SDS011;7912;51.376;6.126;2023-07-29T06:06:55;2.40;;;2.20;;
15624;SDS011;7912;51.376;6.126;2023-07-29T06:09:23;2.23;;;2.00;;
15624;SDS011;7912;51.376;6.126;2023-07-29T06:11:51;2.03;;;1.93;;
15624;SDS011;7912;51.376;6.126;2023-07-29T06:14:21;2.17;;;1.90;;
15624;SDS011;7912;51.376;6.126;2023-07-29T06:16:53;2.53;;;2.07;;
15624;SDS011;7912;51.376;6.126;2023-07-29T06:19:20;2.10;;;1.90;;
15624;SDS011;7912;51.376;6.126;2023-07-29T06:21:48;2.23;;;2.03;;
15624;SDS011;7912;51.376;6.126;2023-07-29T06:24:17;3.00;;;1.83;;
15624;SDS011;7912;51.376;6.126;2023-07-29T06:26:44;2.60;;;2.10;;
15624;SDS011;7912;51.376;6.126;2023-07-29T06:29:11;2.43;;;2.23;;
15624;SDS011;7912;51.376;6.126;2023-07-29T06:31:38;3.47;;;2.47;;
15624;SDS011;7912;51.376;6.126;2023-07-29T06:34:06;2.47;;;1.90;;
15624;SDS011;7912;51.376;6.126;2023-07-29T06:36:33;2.57;;;2.10;;
15624;SDS011;7912;51.376;6.126;2023-07-29T06:39:01;2.63;;;2.10;;
15624;SDS011;7912;51.376;6.126;2023-07-29T06:41:28;3.07;;;2.17;;
15624;SDS011;7912;51.376;6.126;2023-07-29T06:44:00;2.20;;;2.00;;
15624;SDS011;7912;51.376;6.126;2023-07-29T06:46:27;2.40;;;2.13;;
15624;SDS011;7912;51.376;6.126;2023-07-29T06:48:54;2.73;;;2.37;;
15624;SDS011;7912;51.376;6.126;2023-07-29T06:51:22;2.40;;;2.20;;
15624;SDS011;7912;51.376;6.126;2023-07-29T06:53:49;2.50;;;2.30;;
15624;SDS011;7912;51.376;6.126;2023-07-29T06:56:17;2.30;;;2.10;;
15624;SDS011;7912;51.376;6.126;2023-07-29T06:58:44;2.60;;;2.40;;
15624;SDS011;7912;51.376;6.126;2023-07-29T07:01:11;2.50;;;2.00;;
15624;SDS011;7912;51.376;6.126;2023-07-29T07:03:38;2.00;;;1.83;;
15624;SDS011;7912;51.376;6.126;2023-07-29T07:06:06;2.37;;;2.17;;
15624;SDS011;7912;51.376;6.126;2023-07-29T07:08:33;2.73;;;2.10;;
15624;SDS011;7912;51.376;6.126;2023-07-29T07:11:01;2.50;;;2.13;;
15624;SDS011;7912;51.376;6.126;2023-07-29T07:13:28;2.07;;;1.87;;
15624;SDS011;7912;51.376;6.126;2023-07-29T07:15:56;2.10;;;1.87;;
15624;SDS011;7912;51.376;6.126;2023-07-29T07:18:23;2.20;;;2.00;;
15624;SDS011;7912;51.376;6.126;2023-07-29T07:20:51;2.13;;;1.70;;
15624;SDS011;7912;51.376;6.126;2023-07-29T07:23:19;2.40;;;1.90;;
15624;SDS011;7912;51.376;6.126;2023-07-29T07:25:46;1.90;;;1.80;;
15624;SDS011;7912;51.376;6.126;2023-07-29T07:28:14;1.93;;;1.80;;
15624;SDS011;7912;51.376;6.126;2023-07-29T07:30:41;1.73;;;1.63;;
15624;SDS011;7912;51.376;6.126;2023-07-29T07:33:09;1.90;;;1.60;;
15624;SDS011;7912;51.376;6.126;2023-07-29T07:35:36;2.13;;;1.90;;
15624;SDS011;7912;51.376;6.126;2023-07-29T07:38:04;2.90;;;1.70;;
15624;SDS011;7912;51.376;6.126;2023-07-29T07:40:33;1.80;;;1.70;;
15624;SDS011;7912;51.376;6.126;2023-07-29T07:43:01;2.60;;;1.83;;
15624;SDS011;7912;51.376;6.126;2023-07-29T07:45:28;1.70;;;1.60;;
15624;SDS011;7912;51.376;6.126;2023-07-29T07:47:58;1.90;;;1.70;;
15624;SDS011;7912;51.376;6.126;2023-07-29T07:50:25;1.77;;;1.67;;
15624;SDS011;7912;51.376;6.126;2023-07-29T07:52:56;1.63;;;1.40;;
15624;SDS011;7912;51.376;6.126;2023-07-29T07:55:24;2.17;;;1.57;;
15624;SDS011;7912;51.376;6.126;2023-07-29T07:57:52;2.33;;;1.70;;
15624;SDS011;7912;51.376;6.126;2023-07-29T08:00:19;2.57;;;1.70;;
15624;SDS011;7912;51.376;6.126;2023-07-29T08:02:46;1.67;;;1.53;;
15624;SDS011;7912;51.376;6.126;2023-07-29T08:05:17;2.57;;;1.70;;
15624;SDS011;7912;51.376;6.126;2023-07-29T08:07:44;2.30;;;1.77;;
15624;SDS011;7912;51.376;6.126;2023-07-29T08:10:12;2.40;;;1.77;;
15624;SDS011;7912;51.376;6.126;2023-07-29T08:12:39;1.57;;;1.47;;
15624;SDS011;7912;51.376;6.126;2023-07-29T08:15:06;2.00;;;1.80;;
15624;SDS011;7912;51.376;6.126;2023-07-29T08:17:34;1.60;;;1.50;;
15624;SDS011;7912;51.376;6.126;2023-07-29T08:20:02;1.63;;;1.43;;
15624;SDS011;7912;51.376;6.126;2023-07-29T08:22:29;1.83;;;1.50;;
15624;SDS011;7912;51.376;6.126;2023-07-29T08:24:56;2.00;;;1.40;;
15624;SDS011;7912;51.376;6.126;2023-07-29T08:27:24;1.60;;;1.50;;
15624;SDS011;7912;51.376;6.126;2023-07-29T08:29:51;2.43;;;1.97;;
15624;SDS011;7912;51.376;6.126;2023-07-29T08:32:20;1.87;;;1.77;;
15624;SDS011;7912;51.376;6.126;2023-07-29T08:34:48;1.97;;;1.60;;
15624;SDS011;7912;51.376;6.126;2023-07-29T08:37:15;1.83;;;1.73;;
15624;SDS011;7912;51.376;6.126;2023-07-29T08:39:42;1.70;;;1.60;;
15624;SDS011;7912;51.376;6.126;2023-07-29T08:42:11;1.53;;;1.40;;
15624;SDS011;7912;51.376;6.126;2023-07-29T08:44:42;1.63;;;1.50;;
15624;SDS011;7912;51.376;6.126;2023-07-29T08:47:12;1.83;;;1.40;;
15624;SDS011;7912;51.376;6.126;2023-07-29T08:49:40;1.70;;;1.53;;
15624;SDS011;7912;51.376;6.126;2023-07-29T08:52:13;1.43;;;1.33;;
15624;SDS011;7912;51.376;6.126;2023-07-29T08:54:42;1.50;;;1.40;;
15624;SDS011;7912;51.376;6.126;2023-07-29T08:57:10;1.33;;;1.23;;
15624;SDS011;7912;51.376;6.126;2023-07-29T08:59:37;1.93;;;1.80;;
15624;SDS011;7912;51.376;6.126;2023-07-29T09:02:06;2.37;;;1.47;;
15624;SDS011;7912;51.376;6.126;2023-07-29T09:04:33;1.67;;;1.50;;
15624;SDS011;7912;51.376;6.126;2023-07-29T09:07:01;1.67;;;1.57;;
15624;SDS011;7912;51.376;6.126;2023-07-29T09:09:29;1.50;;;1.40;;
15624;SDS011;7912;51.376;6.126;2023-07-29T09:11:57;1.57;;;1.47;;
15624;SDS011;7912;51.376;6.126;2023-07-29T09:14:24;1.30;;;1.20;;
15624;SDS011;7912;51.376;6.126;2023-07-29T09:16:52;1.70;;;1.60;;
15624;SDS011;7912;51.376;6.126;2023-07-29T09:19:20;1.60;;;1.50;;
15624;SDS011;7912;51.376;6.126;2023-07-29T09:21:47;1.90;;;1.40;;
15624;SDS011;7912;51.376;6.126;2023-07-29T09:24:16;1.37;;;1.27;;
15624;SDS011;7912;51.376;6.126;2023-07-29T09:26:48;1.43;;;1.30;;
15624;SDS011;7912;51.376;6.126;2023-07-29T09:29:21;1.40;;;1.30;;
15624;SDS011;7912;51.376;6.126;2023-07-29T09:31:50;2.97;;;1.40;;
15624;SDS011;7912;51.376;6.126;2023-07-29T09:34:17;1.40;;;1.30;;
15624;SDS011;7912;51.376;6.126;2023-07-29T09:36:45;1.50;;;1.40;;
15624;SDS011;7912;51.376;6.126;2023-07-29T09:39:12;1.73;;;1.10;;
15624;SDS011;7912;51.376;6.126;2023-07-29T09:41:40;1.47;;;1.23;;
15624;SDS011;7912;51.376;6.126;2023-07-29T09:47:50;1.30;;;1.20;;
15624;SDS011;7912;51.376;6.126;2023-07-29T09:50:28;1.30;;;1.20;;
15624;SDS011;7912;51.376;6.126;2023-07-29T09:52:56;1.30;;;1.20;;
15624;SDS011;7912;51.376;6.126;2023-07-29T10:05:14;2.83;;;1.40;;
15624;SDS011;7912;51.376;6.126;2023-07-29T10:07:42;1.93;;;1.47;;
15624;SDS011;7912;51.376;6.126;2023-07-29T10:10:10;1.30;;;1.20;;
15624;SDS011;7912;51.376;6.126;2023-07-29T10:12:39;1.77;;;1.43;;
15624;SDS011;7912;51.376;6.126;2023-07-29T10:15:09;2.03;;;1.90;;
15624;SDS011;7912;51.376;6.126;2023-07-29T10:17:37;1.83;;;1.40;;
15624;SDS011;7912;51.376;6.126;2023-07-29T10:20:07;2.50;;;1.30;;
15624;SDS011;7912;51.376;6.126;2023-07-29T10:22:37;1.57;;;1.33;;
15624;SDS011;7912;51.376;6.126;2023-07-29T10:27:49;1.50;;;1.40;;
15624;SDS011;7912;51.376;6.126;2023-07-29T10:30:24;3.00;;;1.40;;
15624;SDS011;7912;51.376;6.126;2023-07-29T10:32:51;1.47;;;1.37;;
15624;SDS011;7912;51.376;6.126;2023-07-29T10:35:20;2.33;;;1.70;;
15624;SDS011;7912;51.376;6.126;2023-07-29T10:37:47;1.60;;;1.47;;
15624;SDS011;7912;51.376;6.126;2023-07-29T10:40:19;1.70;;;1.60;;
15624;SDS011;7912;51.376;6.126;2023-07-29T10:43:03;1.60;;;1.50;;
15624;SDS011;7912;51.376;6.126;2023-07-29T10:45:45;1.60;;;1.50;;
15624;SDS011;7912;51.376;6.126;2023-07-29T10:49:02;1.60;;;1.50;;
15624;SDS011;7912;51.376;6.126;2023-07-29T10:54:09;2.03;;;1.60;;
15624;SDS011;7912;51.376;6.126;2023-07-29T10:56:42;1.40;;;1.30;;
15624;SDS011;7912;51.376;6.126;2023-07-29T11:01:56;1.47;;;1.37;;
15624;SDS011;7912;51.376;6.126;2023-07-29T11:04:29;1.67;;;1.20;;
15624;SDS011;7912;51.376;6.126;2023-07-29T11:09:51;1.40;;;1.30;;
15624;SDS011;7912;51.376;6.126;2023-07-29T11:12:33;1.80;;;1.50;;
15624;SDS011;7912;51.376;6.126;2023-07-29T11:15:22;1.37;;;1.27;;
15624;SDS011;7912;51.376;6.126;2023-07-29T11:17:56;1.50;;;1.40;;
15624;SDS011;7912;51.376;6.126;2023-07-29T11:20:29;1.60;;;1.50;;
15624;SDS011;7912;51.376;6.126;2023-07-29T11:23:08;1.50;;;1.40;;
15624;SDS011;7912;51.376;6.126;2023-07-29T11:25:35;1.53;;;1.43;;
15624;SDS011;7912;51.376;6.126;2023-07-29T11:28:03;2.07;;;1.67;;
15624;SDS011;7912;51.376;6.126;2023-07-29T11:30:32;1.43;;;1.33;;
15624;SDS011;7912;51.376;6.126;2023-07-29T11:33:00;1.60;;;1.50;;
15624;SDS011;7912;51.376;6.126;2023-07-29T11:35:28;1.60;;;1.50;;
15624;SDS011;7912;51.376;6.126;2023-07-29T11:37:55;2.23;;;1.80;;
15624;SDS011;7912;51.376;6.126;2023-07-29T11:40:25;1.57;;;1.47;;
15624;SDS011;7912;51.376;6.126;2023-07-29T11:42:53;1.60;;;1.43;;
15624;SDS011;7912;51.376;6.126;2023-07-29T11:45:22;2.17;;;1.63;;
15624;SDS011;7912;51.376;6.126;2023-07-29T11:48:04;1.73;;;1.63;;
15624;SDS011;7912;51.376;6.126;2023-07-29T11:50:33;1.70;;;1.60;;
15624;SDS011;7912;51.376;6.126;2023-07-29T11:53:01;1.70;;;1.60;;
15624;SDS011;7912;51.376;6.126;2023-07-29T11:55:32;1.70;;;1.60;;
15624;SDS011;7912;51.376;6.126;2023-07-29T11:58:00;1.97;;;1.77;;
15624;SDS011;7912;51.376;6.126;2023-07-29T12:00:31;1.80;;;1.70;;
15624;SDS011;7912;51.376;6.126;2023-07-29T12:03:01;1.70;;;1.60;;
15624;SDS011;7912;51.376;6.126;2023-07-29T12:05:29;1.50;;;1.40;;
15624;SDS011;7912;51.376;6.126;2023-07-29T12:07:57;1.50;;;1.40;;
15624;SDS011;7912;51.376;6.126;2023-07-29T12:10:28;1.60;;;1.50;;
15624;SDS011;7912;51.376;6.126;2023-07-29T12:12:56;2.90;;;1.73;;
15624;SDS011;7912;51.376;6.126;2023-07-29T12:15:24;1.70;;;1.60;;
15624;SDS011;7912;51.376;6.126;2023-07-29T12:17:54;1.50;;;1.40;;
15624;SDS011;7912;51.376;6.126;2023-07-29T12:20:23;1.83;;;1.40;;
15624;SDS011;7912;51.376;6.126;2023-07-29T12:22:53;1.77;;;1.60;;
15624;SDS011;7912;51.376;6.126;2023-07-29T12:25:26;2.30;;;1.53;;
15624;SDS011;7912;51.376;6.126;2023-07-29T12:27:53;1.60;;;1.50;;
15624;SDS011;7912;51.376;6.126;2023-07-29T12:30:22;1.90;;;1.80;;
15624;SDS011;7912;51.376;6.126;2023-07-29T12:32:51;1.90;;;1.80;;
15624;SDS011;7912;51.376;6.126;2023-07-29T12:35:19;2.07;;;1.70;;
15624;SDS011;7912;51.376;6.126;2023-07-29T12:37:46;1.70;;;1.60;;
15624;SDS011;7912;51.376;6.126;2023-07-29T12:40:24;4.10;;;3.20;;
15624;SDS011;7912;51.376;6.126;2023-07-29T12:42:55;1.70;;;1.60;;
15624;SDS011;7912;51.376;6.126;2023-07-29T12:45:23;1.63;;;1.50;;
15624;SDS011;7912;51.376;6.126;2023-07-29T12:47:53;1.77;;;1.43;;
15624;SDS011;7912;51.376;6.126;2023-07-29T12:50:23;2.30;;;1.63;;
15624;SDS011;7912;51.376;6.126;2023-07-29T12:52:50;2.30;;;1.90;;
15624;SDS011;7912;51.376;6.126;2023-07-29T12:55:18;6.90;;;2.20;;
15624;SDS011;7912;51.376;6.126;2023-07-29T12:57:49;3.50;;;2.43;;
15624;SDS011;7912;51.376;6.126;2023-07-29T13:00:18;2.97;;;2.00;;
15624;SDS011;7912;51.376;6.126;2023-07-29T13:02:46;3.37;;;2.10;;
15624;SDS011;7912;51.376;6.126;2023-07-29T13:05:13;3.23;;;1.93;;
15624;SDS011;7912;51.376;6.126;2023-07-29T13:07:41;2.07;;;1.87;;
15624;SDS011;7912;51.376;6.126;2023-07-29T13:10:09;2.37;;;2.17;;
15624;SDS011;7912;51.376;6.126;2023-07-29T13:12:37;2.60;;;2.20;;
15624;SDS011;7912;51.376;6.126;2023-07-29T13:15:06;2.97;;;2.17;;
15624;SDS011;7912;51.376;6.126;2023-07-29T13:17:36;3.30;;;2.30;;
15624;SDS011;7912;51.376;6.126;2023-07-29T13:20:04;3.83;;;2.60;;
15624;SDS011;7912;51.376;6.126;2023-07-29T13:22:35;4.23;;;2.53;;
15624;SDS011;7912;51.376;6.126;2023-07-29T13:25:02;2.50;;;2.30;;
15624;SDS011;7912;51.376;6.126;2023-07-29T13:27:30;4.20;;;2.50;;
15624;SDS011;7912;51.376;6.126;2023-07-29T13:29:57;3.43;;;2.53;;
15624;SDS011;7912;51.376;6.126;2023-07-29T13:32:25;4.80;;;2.77;;
15624;SDS011;7912;51.376;6.126;2023-07-29T13:34:53;3.70;;;2.70;;
15624;SDS011;7912;51.376;6.126;2023-07-29T13:37:20;3.00;;;2.63;;
15624;SDS011;7912;51.376;6.126;2023-07-29T13:39:48;2.60;;;2.40;;
15624;SDS011;7912;51.376;6.126;2023-07-29T13:42:15;2.93;;;2.63;;
15624;SDS011;7912;51.376;6.126;2023-07-29T13:44:42;4.10;;;2.57;;
15624;SDS011;7912;51.376;6.126;2023-07-29T13:47:10;3.20;;;2.30;;
15624;SDS011;7912;51.376;6.126;2023-07-29T13:49:37;3.10;;;2.80;;
15624;SDS011;7912;51.376;6.126;2023-07-29T13:52:07;2.50;;;2.30;;
15624;SDS011;7912;51.376;6.126;2023-07-29T13:54:35;2.80;;;2.60;;
15624;SDS011;7912;51.376;6.126;2023-07-29T13:57:03;2.87;;;2.50;;
15624;SDS011;7912;51.376;6.126;2023-07-29T13:59:30;2.67;;;2.47;;
15624;SDS011;7912;51.376;6.126;2023-07-29T14:01:59;2.70;;;2.50;;
15624;SDS011;7912;51.376;6.126;2023-07-29T14:04:26;2.73;;;2.53;;
15624;SDS011;7912;51.376;6.126;2023-07-29T14:06:53;2.87;;;2.20;;
15624;SDS011;7912;51.376;6.126;2023-07-29T14:09:25;3.17;;;2.50;;
15624;SDS011;7912;51.376;6.126;2023-07-29T14:11:54;2.80;;;2.50;;
15624;SDS011;7912;51.376;6.126;2023-07-29T14:14:21;2.60;;;2.40;;
15624;SDS011;7912;51.376;6.126;2023-07-29T14:16:49;2.27;;;2.17;;
15624;SDS011;7912;51.376;6.126;2023-07-29T14:19:16;2.03;;;1.93;;
15624;SDS011;7912;51.376;6.126;2023-07-29T14:21:44;2.10;;;1.90;;
15624;SDS011;7912;51.376;6.126;2023-07-29T14:24:11;1.90;;;1.70;;
15624;SDS011;7912;51.376;6.126;2023-07-29T14:26:39;1.70;;;1.60;;
15624;SDS011;7912;51.376;6.126;2023-07-29T14:29:06;3.23;;;1.80;;
15624;SDS011;7912;51.376;6.126;2023-07-29T14:31:33;1.80;;;1.70;;
15624;SDS011;7912;51.376;6.126;2023-07-29T14:34:01;2.43;;;2.00;;
15624;SDS011;7912;51.376;6.126;2023-07-29T14:36:29;2.83;;;2.20;;
15624;SDS011;7912;51.376;6.126;2023-07-29T14:38:56;2.30;;;1.97;;
15624;SDS011;7912;51.376;6.126;2023-07-29T14:41:24;1.80;;;1.70;;
15624;SDS011;7912;51.376;6.126;2023-07-29T14:43:51;2.30;;;1.60;;
15624;SDS011;7912;51.376;6.126;2023-07-29T14:46:19;2.03;;;1.40;;
15624;SDS011;7912;51.376;6.126;2023-07-29T14:48:46;2.07;;;1.87;;
15624;SDS011;7912;51.376;6.126;2023-07-29T14:51:13;2.83;;;1.90;;
15624;SDS011;7912;51.376;6.126;2023-07-29T14:53:41;1.63;;;1.50;;
15624;SDS011;7912;51.376;6.126;2023-07-29T14:56:09;1.70;;;1.60;;
15624;SDS011;7912;51.376;6.126;2023-07-29T14:58:37;1.67;;;1.40;;
15624;SDS011;7912;51.376;6.126;2023-07-29T15:01:04;1.63;;;1.53;;
15624;SDS011;7912;51.376;6.126;2023-07-29T15:03:31;1.53;;;1.43;;
15624;SDS011;7912;51.376;6.126;2023-07-29T15:06:02;2.13;;;1.47;;
15624;SDS011;7912;51.376;6.126;2023-07-29T15:08:30;1.63;;;1.50;;
15624;SDS011;7912;51.376;6.126;2023-07-29T15:11:00;1.53;;;1.40;;
15624;SDS011;7912;51.376;6.126;2023-07-29T15:13:30;1.60;;;1.50;;
15624;SDS011;7912;51.376;6.126;2023-07-29T15:15:58;1.63;;;1.43;;
15624;SDS011;7912;51.376;6.126;2023-07-29T15:18:26;1.87;;;1.63;;
15624;SDS011;7912;51.376;6.126;2023-07-29T15:20:56;1.63;;;1.53;;
15624;SDS011;7912;51.376;6.126;2023-07-29T15:23:26;1.70;;;1.60;;
15624;SDS011;7912;51.376;6.126;2023-07-29T15:25:53;2.07;;;1.60;;
15624;SDS011;7912;51.376;6.126;2023-07-29T15:28:25;1.60;;;1.50;;
15624;SDS011;7912;51.376;6.126;2023-07-29T15:30:52;1.60;;;1.50;;
15624;SDS011;7912;51.376;6.126;2023-07-29T15:33:21;1.50;;;1.40;;
15624;SDS011;7912;51.376;6.126;2023-07-29T15:35:51;1.53;;;1.43;;
15624;SDS011;7912;51.376;6.126;2023-07-29T15:38:18;1.90;;;1.70;;
15624;SDS011;7912;51.376;6.126;2023-07-29T15:40:46;1.60;;;1.50;;
15624;SDS011;7912;51.376;6.126;2023-07-29T15:43:15;1.50;;;1.40;;
15624;SDS011;7912;51.376;6.126;2023-07-29T15:45:43;1.77;;;1.67;;
15624;SDS011;7912;51.376;6.126;2023-07-29T15:48:12;1.70;;;1.60;;
15624;SDS011;7912;51.376;6.126;2023-07-29T15:50:41;2.10;;;1.50;;
15624;SDS011;7912;51.376;6.126;2023-07-29T15:53:09;1.73;;;1.63;;
15624;SDS011;7912;51.376;6.126;2023-07-29T15:55:36;2.03;;;1.80;;
15624;SDS011;7912;51.376;6.126;2023-07-29T15:58:04;2.10;;;1.90;;
15624;SDS011;7912;51.376;6.126;2023-07-29T16:00:32;2.17;;;1.60;;
15624;SDS011;7912;51.376;6.126;2023-07-29T16:02:59;1.97;;;1.83;;